sensor_id;sensor_type;location;lat;lon;timestamp;P1;durP1;ratioP1;P2;durP2;ratioP2
29206;SDS011;16247;50.840;4.382;2023-04-07T00:01:14;12.00;;;6.88;;
29206;SDS011;16247;50.840;4.382;2023-04-07T00:03:41;21.05;;;7.20;;
29206;SDS011;16247;50.840;4.382;2023-04-07T00:06:27;17.80;;;6.50;;
29206;SDS011;16247;50.840;4.382;2023-04-07T00:08:59;19.05;;;8.27;;
29206;SDS011;16247;50.840;4.382;2023-04-07T00:11:27;10.90;;;7.40;;
29206;SDS011;16247;50.840;4.382;2023-04-07T00:13:55;16.40;;;7.35;;
29206;SDS011;16247;50.840;4.382;2023-04-07T00:16:22;15.48;;;7.47;;
29206;SDS011;16247;50.840;4.382;2023-04-07T00:18:55;19.70;;;7.07;;
29206;SDS011;16247;50.840;4.382;2023-04-07T00:21:26;15.90;;;8.45;;
29206;SDS011;16247;50.840;4.382;2023-04-07T00:23:53;16.02;;;7.35;;
29206;SDS011;16247;50.840;4.382;2023-04-07T00:26:22;21.60;;;8.63;;
29206;SDS011;16247;50.840;4.382;2023-04-07T00:29:06;18.55;;;8.20;;
29206;SDS011;16247;50.840;4.382;2023-04-07T00:31:34;15.77;;;7.95;;
29206;SDS011;16247;50.840;4.382;2023-04-07T00:34:03;17.25;;;8.13;;
29206;SDS011;16247;50.840;4.382;2023-04-07T00:39:32;15.57;;;7.55;;
29206;SDS011;16247;50.840;4.382;2023-04-07T00:44:39;15.57;;;8.68;;
29206;SDS011;16247;50.840;4.382;2023-04-07T00:47:07;11.73;;;7.50;;
29206;SDS011;16247;50.840;4.382;2023-04-07T00:49:38;17.35;;;7.68;;
29206;SDS011;16247;50.840;4.382;2023-04-07T00:52:04;17.00;;;8.25;;
29206;SDS011;16247;50.840;4.382;2023-04-07T00:54:33;13.65;;;8.05;;
29206;SDS011;16247;50.840;4.382;2023-04-07T00:59:36;14.52;;;8.20;;
29206;SDS011;16247;50.840;4.382;2023-04-07T01:05:02;14.75;;;7.13;;
29206;SDS011;16247;50.840;4.382;2023-04-07T01:11:19;14.18;;;7.68;;
29206;SDS011;16247;50.840;4.382;2023-04-07T01:13:50;18.42;;;8.57;;
29206;SDS011;16247;50.840;4.382;2023-04-07T01:16:26;14.48;;;9.35;;
29206;SDS011;16247;50.840;4.382;2023-04-07T01:19:33;13.75;;;7.95;;
29206;SDS011;16247;50.840;4.382;2023-04-07T01:22:07;16.65;;;8.30;;
29206;SDS011;16247;50.840;4.382;2023-04-07T01:24:59;16.15;;;8.82;;
29206;SDS011;16247;50.840;4.382;2023-04-07T01:27:47;16.38;;;8.57;;
29206;SDS011;16247;50.840;4.382;2023-04-07T01:33:14;13.40;;;8.38;;
29206;SDS011;16247;50.840;4.382;2023-04-07T01:35:40;15.50;;;9.10;;
29206;SDS011;16247;50.840;4.382;2023-04-07T01:38:14;15.77;;;8.53;;
29206;SDS011;16247;50.840;4.382;2023-04-07T01:40:43;14.00;;;8.45;;
29206;SDS011;16247;50.840;4.382;2023-04-07T01:45:49;16.52;;;8.63;;
29206;SDS011;16247;50.840;4.382;2023-04-07T01:48:19;20.45;;;9.82;;
29206;SDS011;16247;50.840;4.382;2023-04-07T01:50:48;18.42;;;9.52;;
29206;SDS011;16247;50.840;4.382;2023-04-07T01:53:15;21.60;;;10.77;;
29206;SDS011;16247;50.840;4.382;2023-04-07T01:55:47;19.42;;;9.88;;
29206;SDS011;16247;50.840;4.382;2023-04-07T01:58:18;15.88;;;9.60;;
29206;SDS011;16247;50.840;4.382;2023-04-07T02:00:52;19.50;;;10.18;;
29206;SDS011;16247;50.840;4.382;2023-04-07T02:03:21;21.63;;;10.18;;
29206;SDS011;16247;50.840;4.382;2023-04-07T02:05:54;17.17;;;8.65;;
29206;SDS011;16247;50.840;4.382;2023-04-07T02:08:34;18.17;;;10.00;;
29206;SDS011;16247;50.840;4.382;2023-04-07T02:11:05;19.55;;;9.45;;
29206;SDS011;16247;50.840;4.382;2023-04-07T02:13:32;20.85;;;9.93;;
29206;SDS011;16247;50.840;4.382;2023-04-07T02:16:06;19.50;;;8.98;;
29206;SDS011;16247;50.840;4.382;2023-04-07T02:18:35;18.20;;;10.30;;
29206;SDS011;16247;50.840;4.382;2023-04-07T02:23:40;17.48;;;9.30;;
29206;SDS011;16247;50.840;4.382;2023-04-07T02:26:06;15.38;;;9.00;;
29206;SDS011;16247;50.840;4.382;2023-04-07T02:28:39;12.80;;;8.20;;
29206;SDS011;16247;50.840;4.382;2023-04-07T02:31:07;15.88;;;8.50;;
29206;SDS011;16247;50.840;4.382;2023-04-07T02:33:37;17.17;;;8.85;;
29206;SDS011;16247;50.840;4.382;2023-04-07T02:36:10;14.23;;;8.88;;
29206;SDS011;16247;50.840;4.382;2023-04-07T02:38:36;15.52;;;8.35;;
29206;SDS011;16247;50.840;4.382;2023-04-07T02:41:07;14.70;;;7.82;;
29206;SDS011;16247;50.840;4.382;2023-04-07T02:43:38;15.40;;;8.38;;
29206;SDS011;16247;50.840;4.382;2023-04-07T02:46:11;13.48;;;8.50;;
29206;SDS011;16247;50.840;4.382;2023-04-07T02:48:39;13.98;;;7.85;;
29206;SDS011;16247;50.840;4.382;2023-04-07T02:51:12;15.27;;;7.65;;
29206;SDS011;16247;50.840;4.382;2023-04-07T02:53:43;10.98;;;7.43;;
29206;SDS011;16247;50.840;4.382;2023-04-07T02:56:11;14.80;;;8.23;;
29206;SDS011;16247;50.840;4.382;2023-04-07T02:58:40;17.63;;;8.35;;
29206;SDS011;16247;50.840;4.382;2023-04-07T03:01:24;18.80;;;9.13;;
29206;SDS011;16247;50.840;4.382;2023-04-07T03:04:10;19.40;;;8.52;;
29206;SDS011;16247;50.840;4.382;2023-04-07T03:06:38;21.33;;;9.80;;
29206;SDS011;16247;50.840;4.382;2023-04-07T03:09:19;18.35;;;9.13;;
29206;SDS011;16247;50.840;4.382;2023-04-07T03:11:59;20.17;;;9.93;;
29206;SDS011;16247;50.840;4.382;2023-04-07T03:14:30;24.65;;;9.77;;
29206;SDS011;16247;50.840;4.382;2023-04-07T03:17:00;29.63;;;11.20;;
29206;SDS011;16247;50.840;4.382;2023-04-07T03:19:47;30.85;;;12.15;;
29206;SDS011;16247;50.840;4.382;2023-04-07T03:22:43;29.25;;;12.02;;
29206;SDS011;16247;50.840;4.382;2023-04-07T03:25:17;27.13;;;11.45;;
29206;SDS011;16247;50.840;4.382;2023-04-07T03:27:45;26.92;;;12.02;;
29206;SDS011;16247;50.840;4.382;2023-04-07T03:30:15;31.10;;;11.80;;
29206;SDS011;16247;50.840;4.382;2023-04-07T03:33:02;28.08;;;11.82;;
29206;SDS011;16247;50.840;4.382;2023-04-07T03:35:32;36.08;;;13.65;;
29206;SDS011;16247;50.840;4.382;2023-04-07T03:38:10;34.78;;;12.65;;
29206;SDS011;16247;50.840;4.382;2023-04-07T03:41:01;29.83;;;11.45;;
29206;SDS011;16247;50.840;4.382;2023-04-07T03:43:53;33.10;;;11.75;;
29206;SDS011;16247;50.840;4.382;2023-04-07T03:46:27;32.10;;;12.32;;
29206;SDS011;16247;50.840;4.382;2023-04-07T03:48:56;29.92;;;11.85;;
29206;SDS011;16247;50.840;4.382;2023-04-07T03:51:30;30.85;;;12.02;;
29206;SDS011;16247;50.840;4.382;2023-04-07T03:54:21;32.75;;;12.30;;
29206;SDS011;16247;50.840;4.382;2023-04-07T03:56:50;33.38;;;12.73;;
29206;SDS011;16247;50.840;4.382;2023-04-07T04:00:01;29.65;;;11.93;;
29206;SDS011;16247;50.840;4.382;2023-04-07T04:02:33;39.33;;;12.50;;
29206;SDS011;16247;50.840;4.382;2023-04-07T04:05:05;40.85;;;13.52;;
29206;SDS011;16247;50.840;4.382;2023-04-07T04:07:54;28.05;;;12.77;;
29206;SDS011;16247;50.840;4.382;2023-04-07T04:10:26;37.30;;;14.90;;
29206;SDS011;16247;50.840;4.382;2023-04-07T04:13:02;39.50;;;14.50;;
29206;SDS011;16247;50.840;4.382;2023-04-07T04:15:51;32.50;;;13.15;;
29206;SDS011;16247;50.840;4.382;2023-04-07T04:18:21;32.60;;;13.10;;
29206;SDS011;16247;50.840;4.382;2023-04-07T04:20:55;39.90;;;14.00;;
29206;SDS011;16247;50.840;4.382;2023-04-07T04:26:24;41.25;;;14.15;;
29206;SDS011;16247;50.840;4.382;2023-04-07T04:29:00;38.35;;;13.77;;
29206;SDS011;16247;50.840;4.382;2023-04-07T04:31:46;34.42;;;12.77;;
29206;SDS011;16247;50.840;4.382;2023-04-07T04:34:15;39.58;;;13.88;;
29206;SDS011;16247;50.840;4.382;2023-04-07T04:39:54;35.05;;;13.68;;
29206;SDS011;16247;50.840;4.382;2023-04-07T04:42:33;33.78;;;13.18;;
29206;SDS011;16247;50.840;4.382;2023-04-07T04:45:00;30.38;;;13.25;;
29206;SDS011;16247;50.840;4.382;2023-04-07T04:47:28;41.80;;;14.30;;
29206;SDS011;16247;50.840;4.382;2023-04-07T04:49:58;39.70;;;14.00;;
29206;SDS011;16247;50.840;4.382;2023-04-07T04:52:24;34.45;;;13.25;;
29206;SDS011;16247;50.840;4.382;2023-04-07T04:54:57;30.48;;;13.25;;
29206;SDS011;16247;50.840;4.382;2023-04-07T04:57:22;36.92;;;15.52;;
29206;SDS011;16247;50.840;4.382;2023-04-07T04:59:49;40.40;;;14.27;;
29206;SDS011;16247;50.840;4.382;2023-04-07T05:02:18;32.42;;;13.50;;
29206;SDS011;16247;50.840;4.382;2023-04-07T05:04:45;33.85;;;14.20;;
29206;SDS011;16247;50.840;4.382;2023-04-07T05:07:12;33.00;;;14.77;;
29206;SDS011;16247;50.840;4.382;2023-04-07T05:12:23;31.17;;;14.48;;
29206;SDS011;16247;50.840;4.382;2023-04-07T05:14:49;31.88;;;13.77;;
29206;SDS011;16247;50.840;4.382;2023-04-07T05:17:22;35.30;;;14.02;;
29206;SDS011;16247;50.840;4.382;2023-04-07T05:19:51;30.50;;;13.77;;
29206;SDS011;16247;50.840;4.382;2023-04-07T05:22:17;33.45;;;14.32;;
29206;SDS011;16247;50.840;4.382;2023-04-07T05:24:42;30.95;;;13.60;;
29206;SDS011;16247;50.840;4.382;2023-04-07T05:27:30;31.00;;;14.82;;
29206;SDS011;16247;50.840;4.382;2023-04-07T05:29:58;35.40;;;14.98;;
29206;SDS011;16247;50.840;4.382;2023-04-07T05:32:26;28.38;;;13.57;;
29206;SDS011;16247;50.840;4.382;2023-04-07T05:35:05;28.92;;;13.10;;
29206;SDS011;16247;50.840;4.382;2023-04-07T05:37:57;28.98;;;13.77;;
29206;SDS011;16247;50.840;4.382;2023-04-07T05:40:36;31.23;;;13.60;;
29206;SDS011;16247;50.840;4.382;2023-04-07T05:43:22;32.95;;;15.52;;
29206;SDS011;16247;50.840;4.382;2023-04-07T05:45:53;30.10;;;12.73;;
29206;SDS011;16247;50.840;4.382;2023-04-07T05:48:20;29.95;;;14.20;;
29206;SDS011;16247;50.840;4.382;2023-04-07T05:51:08;36.78;;;15.30;;
29206;SDS011;16247;50.840;4.382;2023-04-07T05:53:57;33.38;;;14.43;;
29206;SDS011;16247;50.840;4.382;2023-04-07T05:56:58;34.83;;;14.30;;
29206;SDS011;16247;50.840;4.382;2023-04-07T06:00:01;32.70;;;15.07;;
29206;SDS011;16247;50.840;4.382;2023-04-07T06:02:45;32.33;;;14.65;;
29206;SDS011;16247;50.840;4.382;2023-04-07T06:05:19;34.92;;;16.17;;
29206;SDS011;16247;50.840;4.382;2023-04-07T06:07:47;30.77;;;16.05;;
29206;SDS011;16247;50.840;4.382;2023-04-07T06:10:33;37.00;;;15.60;;
29206;SDS011;16247;50.840;4.382;2023-04-07T06:13:11;31.30;;;15.15;;
29206;SDS011;16247;50.840;4.382;2023-04-07T06:16:19;36.15;;;15.10;;
29206;SDS011;16247;50.840;4.382;2023-04-07T06:19:05;38.75;;;15.65;;
29206;SDS011;16247;50.840;4.382;2023-04-07T06:21:38;33.38;;;15.63;;
29206;SDS011;16247;50.840;4.382;2023-04-07T06:24:19;37.33;;;13.57;;
29206;SDS011;16247;50.840;4.382;2023-04-07T06:27:15;29.98;;;13.65;;
29206;SDS011;16247;50.840;4.382;2023-04-07T06:30:18;28.40;;;12.95;;
29206;SDS011;16247;50.840;4.382;2023-04-07T06:32:54;34.10;;;14.48;;
29206;SDS011;16247;50.840;4.382;2023-04-07T06:36:22;29.83;;;15.93;;
29206;SDS011;16247;50.840;4.382;2023-04-07T06:39:27;30.25;;;15.07;;
29206;SDS011;16247;50.840;4.382;2023-04-07T06:43:04;25.90;;;13.27;;
29206;SDS011;16247;50.840;4.382;2023-04-07T06:45:51;28.63;;;13.27;;
29206;SDS011;16247;50.840;4.382;2023-04-07T06:48:31;29.42;;;13.15;;
29206;SDS011;16247;50.840;4.382;2023-04-07T06:51:39;28.25;;;12.55;;
29206;SDS011;16247;50.840;4.382;2023-04-07T06:54:25;32.65;;;13.18;;
29206;SDS011;16247;50.840;4.382;2023-04-07T06:57:59;26.25;;;12.43;;
29206;SDS011;16247;50.840;4.382;2023-04-07T07:00:47;22.98;;;12.35;;
29206;SDS011;16247;50.840;4.382;2023-04-07T07:03:12;27.27;;;13.23;;
29206;SDS011;16247;50.840;4.382;2023-04-07T07:18:46;32.28;;;14.43;;
29206;SDS011;16247;50.840;4.382;2023-04-07T07:21:28;25.80;;;13.18;;
29206;SDS011;16247;50.840;4.382;2023-04-07T07:24:07;23.50;;;12.77;;
29206;SDS011;16247;50.840;4.382;2023-04-07T07:30:09;17.25;;;10.27;;
29206;SDS011;16247;50.840;4.382;2023-04-07T07:32:45;18.65;;;10.27;;
29206;SDS011;16247;50.840;4.382;2023-04-07T07:37:53;22.30;;;10.40;;
29206;SDS011;16247;50.840;4.382;2023-04-07T07:40:41;19.38;;;9.88;;
29206;SDS011;16247;50.840;4.382;2023-04-07T07:43:09;15.57;;;8.20;;
29206;SDS011;16247;50.840;4.382;2023-04-07T07:45:36;17.20;;;8.80;;
29206;SDS011;16247;50.840;4.382;2023-04-07T07:48:29;14.25;;;8.75;;
29206;SDS011;16247;50.840;4.382;2023-04-07T07:50:57;14.52;;;9.02;;
29206;SDS011;16247;50.840;4.382;2023-04-07T07:53:32;19.48;;;10.50;;
29206;SDS011;16247;50.840;4.382;2023-04-07T07:56:19;16.60;;;9.02;;
29206;SDS011;16247;50.840;4.382;2023-04-07T07:58:49;15.57;;;9.88;;
29206;SDS011;16247;50.840;4.382;2023-04-07T08:01:24;18.45;;;8.85;;
29206;SDS011;16247;50.840;4.382;2023-04-07T08:06:40;12.75;;;7.20;;
29206;SDS011;16247;50.840;4.382;2023-04-07T08:11:39;12.10;;;5.82;;
29206;SDS011;16247;50.840;4.382;2023-04-07T08:14:12;15.23;;;6.68;;
29206;SDS011;16247;50.840;4.382;2023-04-07T08:16:47;12.20;;;6.32;;
29206;SDS011;16247;50.840;4.382;2023-04-07T08:24:23;12.48;;;5.72;;
29206;SDS011;16247;50.840;4.382;2023-04-07T08:27:01;13.70;;;5.88;;
29206;SDS011;16247;50.840;4.382;2023-04-07T08:32:42;12.23;;;6.15;;
29206;SDS011;16247;50.840;4.382;2023-04-07T08:35:12;13.30;;;5.40;;
29206;SDS011;16247;50.840;4.382;2023-04-07T08:38:06;9.93;;;4.65;;
29206;SDS011;16247;50.840;4.382;2023-04-07T08:48:52;7.97;;;4.80;;
29206;SDS011;16247;50.840;4.382;2023-04-07T08:56:52;12.25;;;4.68;;
29206;SDS011;16247;50.840;4.382;2023-04-07T08:59:47;8.80;;;4.70;;
29206;SDS011;16247;50.840;4.382;2023-04-07T09:02:16;7.22;;;4.45;;
29206;SDS011;16247;50.840;4.382;2023-04-07T09:04:45;12.18;;;5.38;;
29206;SDS011;16247;50.840;4.382;2023-04-07T09:09:47;10.77;;;4.60;;
29206;SDS011;16247;50.840;4.382;2023-04-07T09:12:22;6.75;;;3.90;;
29206;SDS011;16247;50.840;4.382;2023-04-07T09:15:33;8.30;;;3.47;;
29206;SDS011;16247;50.840;4.382;2023-04-07T09:21:49;6.35;;;3.03;;
29206;SDS011;16247;50.840;4.382;2023-04-07T11:14:38;8.48;;;3.33;;
29206;SDS011;16247;50.840;4.382;2023-04-07T11:17:23;5.53;;;2.45;;
29206;SDS011;16247;50.840;4.382;2023-04-07T11:20:44;10.60;;;3.17;;
29206;SDS011;16247;50.840;4.382;2023-04-07T11:23:46;8.68;;;3.15;;
29206;SDS011;16247;50.840;4.382;2023-04-07T11:26:36;7.47;;;3.47;;
29206;SDS011;16247;50.840;4.382;2023-04-07T11:29:52;9.18;;;5.20;;
29206;SDS011;16247;50.840;4.382;2023-04-07T11:35:06;7.88;;;2.45;;
29206;SDS011;16247;50.840;4.382;2023-04-07T11:41:55;5.72;;;2.75;;
29206;SDS011;16247;50.840;4.382;2023-04-07T11:47:51;12.38;;;3.20;;
29206;SDS011;16247;50.840;4.382;2023-04-07T11:53:57;6.50;;;2.75;;
29206;SDS011;16247;50.840;4.382;2023-04-07T11:56:52;8.50;;;3.47;;
29206;SDS011;16247;50.840;4.382;2023-04-07T11:59:47;6.45;;;3.00;;
29206;SDS011;16247;50.840;4.382;2023-04-07T12:02:31;13.02;;;4.32;;
29206;SDS011;16247;50.840;4.382;2023-04-07T12:08:41;14.15;;;4.22;;
29206;SDS011;16247;50.840;4.382;2023-04-07T12:14:17;8.75;;;3.80;;
29206;SDS011;16247;50.840;4.382;2023-04-07T12:17:22;10.48;;;3.53;;
29206;SDS011;16247;50.840;4.382;2023-04-07T12:20:43;10.85;;;2.78;;
29206;SDS011;16247;50.840;4.382;2023-04-07T12:24:09;7.00;;;2.80;;
29206;SDS011;16247;50.840;4.382;2023-04-07T12:27:24;6.45;;;2.22;;
29206;SDS011;16247;50.840;4.382;2023-04-07T12:33:55;9.85;;;3.05;;
29206;SDS011;16247;50.840;4.382;2023-04-07T12:37:02;10.52;;;2.67;;
29206;SDS011;16247;50.840;4.382;2023-04-07T12:39:56;9.13;;;2.60;;
29206;SDS011;16247;50.840;4.382;2023-04-07T12:43:20;9.00;;;3.20;;
29206;SDS011;16247;50.840;4.382;2023-04-07T12:45:53;7.13;;;2.70;;
29206;SDS011;16247;50.840;4.382;2023-04-07T12:49:03;5.68;;;2.97;;
29206;SDS011;16247;50.840;4.382;2023-04-07T12:51:56;9.38;;;2.90;;
29206;SDS011;16247;50.840;4.382;2023-04-07T12:55:29;9.23;;;2.58;;
29206;SDS011;16247;50.840;4.382;2023-04-07T12:58:35;11.75;;;3.92;;
29206;SDS011;16247;50.840;4.382;2023-04-07T13:01:21;8.55;;;3.05;;
29206;SDS011;16247;50.840;4.382;2023-04-07T13:07:48;6.57;;;1.90;;
29206;SDS011;16247;50.840;4.382;2023-04-07T13:10:47;6.43;;;2.08;;
29206;SDS011;16247;50.840;4.382;2023-04-07T13:13:32;10.68;;;4.22;;
29206;SDS011;16247;50.840;4.382;2023-04-07T13:18:56;5.53;;;2.60;;
29206;SDS011;16247;50.840;4.382;2023-04-07T13:21:46;6.70;;;2.92;;
29206;SDS011;16247;50.840;4.382;2023-04-07T13:24:30;7.43;;;2.78;;
29206;SDS011;16247;50.840;4.382;2023-04-07T13:27:28;10.95;;;3.17;;
29206;SDS011;16247;50.840;4.382;2023-04-07T13:30:23;6.68;;;2.85;;
29206;SDS011;16247;50.840;4.382;2023-04-07T13:33:08;10.88;;;3.42;;
29206;SDS011;16247;50.840;4.382;2023-04-07T13:38:32;5.10;;;2.33;;
29206;SDS011;16247;50.840;4.382;2023-04-07T13:41:22;5.43;;;2.38;;
29206;SDS011;16247;50.840;4.382;2023-04-07T13:44:02;9.55;;;3.17;;
29206;SDS011;16247;50.840;4.382;2023-04-07T13:47:28;7.25;;;2.28;;
29206;SDS011;16247;50.840;4.382;2023-04-07T13:50:52;8.82;;;3.00;;
29206;SDS011;16247;50.840;4.382;2023-04-07T13:53:46;7.57;;;2.67;;
29206;SDS011;16247;50.840;4.382;2023-04-07T13:56:11;11.10;;;3.03;;
29206;SDS011;16247;50.840;4.382;2023-04-07T14:02:35;6.60;;;2.80;;
29206;SDS011;16247;50.840;4.382;2023-04-07T14:05:23;7.80;;;2.85;;
29206;SDS011;16247;50.840;4.382;2023-04-07T14:08:11;6.57;;;2.95;;
29206;SDS011;16247;50.840;4.382;2023-04-07T14:10:41;7.22;;;2.60;;
29206;SDS011;16247;50.840;4.382;2023-04-07T14:14:11;7.05;;;2.55;;
29206;SDS011;16247;50.840;4.382;2023-04-07T14:16:40;8.30;;;2.42;;
29206;SDS011;16247;50.840;4.382;2023-04-07T14:19:32;7.20;;;2.92;;
29206;SDS011;16247;50.840;4.382;2023-04-07T14:22:09;7.65;;;2.20;;
29206;SDS011;16247;50.840;4.382;2023-04-07T14:28:32;5.45;;;2.28;;
29206;SDS011;16247;50.840;4.382;2023-04-07T14:32:00;7.75;;;2.78;;
29206;SDS011;16247;50.840;4.382;2023-04-07T14:37:26;6.78;;;3.10;;
29206;SDS011;16247;50.840;4.382;2023-04-07T14:40:21;9.68;;;2.53;;
29206;SDS011;16247;50.840;4.382;2023-04-07T14:45:36;10.35;;;3.80;;
29206;SDS011;16247;50.840;4.382;2023-04-07T14:48:56;5.47;;;3.75;;
29206;SDS011;16247;50.840;4.382;2023-04-07T14:51:33;7.20;;;3.67;;
29206;SDS011;16247;50.840;4.382;2023-04-07T14:54:41;12.05;;;3.50;;
29206;SDS011;16247;50.840;4.382;2023-04-07T15:00:29;8.75;;;2.80;;
29206;SDS011;16247;50.840;4.382;2023-04-07T15:03:32;5.70;;;3.42;;
29206;SDS011;16247;50.840;4.382;2023-04-07T15:06:26;7.93;;;2.95;;
29206;SDS011;16247;50.840;4.382;2023-04-07T15:12:09;4.53;;;2.05;;
29206;SDS011;16247;50.840;4.382;2023-04-07T15:15:10;4.63;;;1.98;;
29206;SDS011;16247;50.840;4.382;2023-04-07T15:18:45;2.80;;;1.63;;
29206;SDS011;16247;50.840;4.382;2023-04-07T15:21:54;3.53;;;1.85;;
29206;SDS011;16247;50.840;4.382;2023-04-07T15:28:08;6.57;;;3.05;;
29206;SDS011;16247;50.840;4.382;2023-04-07T15:31:07;6.68;;;2.67;;
29206;SDS011;16247;50.840;4.382;2023-04-07T15:34:22;5.18;;;2.13;;
29206;SDS011;16247;50.840;4.382;2023-04-07T15:41:19;8.90;;;2.45;;
29206;SDS011;16247;50.840;4.382;2023-04-07T15:44:02;6.93;;;2.70;;
29206;SDS011;16247;50.840;4.382;2023-04-07T15:46:34;5.57;;;2.42;;
29206;SDS011;16247;50.840;4.382;2023-04-07T15:49:16;4.50;;;2.45;;
29206;SDS011;16247;50.840;4.382;2023-04-07T15:51:49;4.40;;;2.45;;
29206;SDS011;16247;50.840;4.382;2023-04-07T15:54:43;5.32;;;2.08;;
29206;SDS011;16247;50.840;4.382;2023-04-07T16:00:04;4.60;;;2.13;;
29206;SDS011;16247;50.840;4.382;2023-04-07T16:03:16;6.40;;;2.50;;
29206;SDS011;16247;50.840;4.382;2023-04-07T16:06:11;6.18;;;2.53;;
29206;SDS011;16247;50.840;4.382;2023-04-07T16:08:58;6.75;;;2.60;;
29206;SDS011;16247;50.840;4.382;2023-04-07T16:11:26;5.93;;;2.55;;
29206;SDS011;16247;50.840;4.382;2023-04-07T16:13:52;5.97;;;2.70;;
29206;SDS011;16247;50.840;4.382;2023-04-07T16:16:58;4.82;;;2.03;;
29206;SDS011;16247;50.840;4.382;2023-04-07T16:22:57;7.07;;;2.53;;
29206;SDS011;16247;50.840;4.382;2023-04-07T16:28:05;4.82;;;1.80;;
29206;SDS011;16247;50.840;4.382;2023-04-07T16:30:54;6.18;;;1.50;;
29206;SDS011;16247;50.840;4.382;2023-04-07T16:33:32;6.82;;;1.92;;
29206;SDS011;16247;50.840;4.382;2023-04-07T16:35:58;3.33;;;1.20;;
29206;SDS011;16247;50.840;4.382;2023-04-07T16:39:10;4.65;;;1.02;;
29206;SDS011;16247;50.840;4.382;2023-04-07T16:42:00;6.82;;;1.80;;
29206;SDS011;16247;50.840;4.382;2023-04-07T16:45:02;7.20;;;1.70;;
29206;SDS011;16247;50.840;4.382;2023-04-07T16:48:33;5.18;;;2.13;;
29206;SDS011;16247;50.840;4.382;2023-04-07T16:54:14;6.78;;;2.55;;
29206;SDS011;16247;50.840;4.382;2023-04-07T16:57:01;5.88;;;2.72;;
29206;SDS011;16247;50.840;4.382;2023-04-07T16:59:46;7.97;;;2.13;;
29206;SDS011;16247;50.840;4.382;2023-04-07T17:02:57;7.45;;;2.30;;
29206;SDS011;16247;50.840;4.382;2023-04-07T17:05:57;3.83;;;2.30;;
29206;SDS011;16247;50.840;4.382;2023-04-07T17:08:46;6.80;;;2.33;;
29206;SDS011;16247;50.840;4.382;2023-04-07T17:11:36;6.40;;;1.80;;
29206;SDS011;16247;50.840;4.382;2023-04-07T17:17:44;7.07;;;2.33;;
29206;SDS011;16247;50.840;4.382;2023-04-07T17:20:31;7.30;;;2.78;;
29206;SDS011;16247;50.840;4.382;2023-04-07T17:23:05;10.35;;;2.47;;
29206;SDS011;16247;50.840;4.382;2023-04-07T17:25:38;7.55;;;2.50;;
29206;SDS011;16247;50.840;4.382;2023-04-07T17:28:34;10.60;;;2.63;;
29206;SDS011;16247;50.840;4.382;2023-04-07T17:32:01;7.38;;;2.17;;
29206;SDS011;16247;50.840;4.382;2023-04-07T17:35:21;5.80;;;1.58;;
29206;SDS011;16247;50.840;4.382;2023-04-07T17:38:08;4.68;;;2.30;;
29206;SDS011;16247;50.840;4.382;2023-04-07T17:40:57;6.28;;;2.00;;
29206;SDS011;16247;50.840;4.382;2023-04-07T17:43:29;5.88;;;2.05;;
29206;SDS011;16247;50.840;4.382;2023-04-07T17:46:12;8.20;;;2.58;;
29206;SDS011;16247;50.840;4.382;2023-04-07T17:49:01;7.95;;;2.22;;
29206;SDS011;16247;50.840;4.382;2023-04-07T17:51:33;3.63;;;1.60;;
29206;SDS011;16247;50.840;4.382;2023-04-07T17:54:13;5.10;;;2.42;;
29206;SDS011;16247;50.840;4.382;2023-04-07T18:00:09;9.02;;;2.28;;
29206;SDS011;16247;50.840;4.382;2023-04-07T18:03:16;3.40;;;1.85;;
29206;SDS011;16247;50.840;4.382;2023-04-07T18:05:59;7.20;;;2.28;;
29206;SDS011;16247;50.840;4.382;2023-04-07T18:09:14;12.85;;;2.72;;
29206;SDS011;16247;50.840;4.382;2023-04-07T18:11:56;7.93;;;3.28;;
29206;SDS011;16247;50.840;4.382;2023-04-07T18:14:31;11.65;;;3.33;;
29206;SDS011;16247;50.840;4.382;2023-04-07T18:17:01;13.30;;;2.72;;
29206;SDS011;16247;50.840;4.382;2023-04-07T18:19:28;5.20;;;2.20;;
29206;SDS011;16247;50.840;4.382;2023-04-07T18:22:26;10.13;;;3.72;;
29206;SDS011;16247;50.840;4.382;2023-04-07T18:25:23;8.15;;;2.10;;
29206;SDS011;16247;50.840;4.382;2023-04-07T18:31:37;7.85;;;2.50;;
29206;SDS011;16247;50.840;4.382;2023-04-07T18:34:31;5.57;;;2.10;;
29206;SDS011;16247;50.840;4.382;2023-04-07T18:37:15;7.50;;;2.80;;
29206;SDS011;16247;50.840;4.382;2023-04-07T18:39:48;6.97;;;2.55;;
29206;SDS011;16247;50.840;4.382;2023-04-07T18:42:35;4.45;;;2.00;;
29206;SDS011;16247;50.840;4.382;2023-04-07T18:45:36;5.10;;;3.08;;
29206;SDS011;16247;50.840;4.382;2023-04-07T18:48:35;7.38;;;2.08;;
29206;SDS011;16247;50.840;4.382;2023-04-07T18:51:24;5.40;;;2.25;;
29206;SDS011;16247;50.840;4.382;2023-04-07T18:54:01;9.23;;;2.40;;
29206;SDS011;16247;50.840;4.382;2023-04-07T18:57:00;7.20;;;2.60;;
29206;SDS011;16247;50.840;4.382;2023-04-07T18:59:40;8.60;;;2.78;;
29206;SDS011;16247;50.840;4.382;2023-04-07T19:02:13;8.95;;;2.50;;
29206;SDS011;16247;50.840;4.382;2023-04-07T19:05:06;4.35;;;2.00;;
29206;SDS011;16247;50.840;4.382;2023-04-07T19:07:53;7.22;;;2.30;;
29206;SDS011;16247;50.840;4.382;2023-04-07T19:10:42;7.18;;;2.92;;
29206;SDS011;16247;50.840;4.382;2023-04-07T19:14:05;7.90;;;2.65;;
29206;SDS011;16247;50.840;4.382;2023-04-07T19:19:31;4.72;;;2.20;;
29206;SDS011;16247;50.840;4.382;2023-04-07T19:21:57;6.95;;;2.20;;
29206;SDS011;16247;50.840;4.382;2023-04-07T19:25:33;9.93;;;2.50;;
29206;SDS011;16247;50.840;4.382;2023-04-07T19:35:01;8.20;;;2.20;;
29206;SDS011;16247;50.840;4.382;2023-04-07T19:37:45;8.85;;;2.67;;
29206;SDS011;16247;50.840;4.382;2023-04-07T19:47:46;8.35;;;3.10;;
29206;SDS011;16247;50.840;4.382;2023-04-07T19:50:45;9.30;;;3.13;;
29206;SDS011;16247;50.840;4.382;2023-04-07T19:54:14;9.10;;;2.58;;
29206;SDS011;16247;50.840;4.382;2023-04-07T19:57:40;10.48;;;3.08;;
29206;SDS011;16247;50.840;4.382;2023-04-07T20:00:36;11.65;;;3.58;;
29206;SDS011;16247;50.840;4.382;2023-04-07T20:04:04;7.10;;;3.00;;
29206;SDS011;16247;50.840;4.382;2023-04-07T20:07:00;12.05;;;3.65;;
29206;SDS011;16247;50.840;4.382;2023-04-07T20:09:27;13.68;;;3.42;;
29206;SDS011;16247;50.840;4.382;2023-04-07T20:12:43;12.15;;;4.13;;
29206;SDS011;16247;50.840;4.382;2023-04-07T20:16:06;11.60;;;4.68;;
29206;SDS011;16247;50.840;4.382;2023-04-07T20:19:11;8.40;;;3.53;;
29206;SDS011;16247;50.840;4.382;2023-04-07T20:22:18;8.20;;;3.80;;
29206;SDS011;16247;50.840;4.382;2023-04-07T20:25:04;11.00;;;3.58;;
29206;SDS011;16247;50.840;4.382;2023-04-07T20:28:14;10.63;;;4.20;;
29206;SDS011;16247;50.840;4.382;2023-04-07T20:31:00;11.52;;;4.50;;
29206;SDS011;16247;50.840;4.382;2023-04-07T20:34:20;9.05;;;4.85;;
29206;SDS011;16247;50.840;4.382;2023-04-07T20:37:54;17.33;;;4.38;;
29206;SDS011;16247;50.840;4.382;2023-04-07T20:40:51;12.10;;;4.43;;
29206;SDS011;16247;50.840;4.382;2023-04-07T20:43:43;13.23;;;4.50;;
29206;SDS011;16247;50.840;4.382;2023-04-07T20:46:11;10.98;;;4.20;;
29206;SDS011;16247;50.840;4.382;2023-04-07T20:49:23;14.27;;;4.07;;
29206;SDS011;16247;50.840;4.382;2023-04-07T20:51:55;10.05;;;4.53;;
29206;SDS011;16247;50.840;4.382;2023-04-07T20:57:40;12.20;;;3.75;;
29206;SDS011;16247;50.840;4.382;2023-04-07T21:00:15;11.40;;;4.50;;
29206;SDS011;16247;50.840;4.382;2023-04-07T21:02:42;10.93;;;4.60;;
29206;SDS011;16247;50.840;4.382;2023-04-07T21:05:10;12.88;;;4.47;;
29206;SDS011;16247;50.840;4.382;2023-04-07T21:10:10;14.90;;;5.13;;
29206;SDS011;16247;50.840;4.382;2023-04-07T21:12:38;13.63;;;6.05;;
29206;SDS011;16247;50.840;4.382;2023-04-07T21:15:13;16.02;;;5.93;;